Terminal Aerodrome Forecast
Issued by NWS

Home | Current Version | Previous Version | Text Only | Print | Product List | Glossary On
Versions: 1 2 3 4 5 6 7 8 9 10 11 12 13 14 15
000
FTUS44 KMOB 020520
TAFBFM
TAF
KBFM 020520Z 0206/0306 15003KT P6SM VCSH BKN017
     FM021400 14007KT P6SM VCSH BKN015
     FM021800 17010KT 5SM TSRA BKN035CB=

USA.gov is the U.S. government's official web portal to all federal, state and local government web resources and services.